Time;durP1;ratioP1;P1;durP2;ratioP2;P2;SDS_P1;SDS_P2;PMS_P1;PMS_P2;Temp;Humidity;BMP_temperature;BMP_pressure;BME280_temperature;BME280_humidity;BME280_pressure;Samples;Min_cycle;Max_cycle;Signal;HPM_P1;HPM_P2
2021/01/06 00:00:46;;;;;;;30.42;17.70;;;;;;;1.95;91.97;98303.44;5021012;28;20079;-66
2021/01/06 00:03:13;;;;;;;31.00;15.05;;;;;;;1.80;91.20;98300.78;5020080;28;20108;-65
2021/01/06 00:05:39;;;;;;;23.05;13.65;;;;;;;1.81;90.25;98297.38;5025497;28;20033;-66
2021/01/06 00:08:05;;;;;;;26.10;13.75;;;;;;;1.68;89.83;98301.50;5025518;28;20500;-65
2021/01/06 00:10:31;;;;;;;26.15;13.50;;;;;;;1.77;90.30;98301.59;5019156;28;20040;-65
2021/01/06 00:12:56;;;;;;;19.20;13.68;;;;;;;1.78;88.43;98312.66;5019129;28;20021;-66
2021/01/06 00:15:26;;;;;;;24.55;13.70;;;;;;;1.74;88.89;98310.91;5019294;28;20029;-65
2021/01/06 00:17:52;;;;;;;23.25;13.32;;;;;;;1.77;89.28;98304.13;5025214;28;20044;-65
2021/01/06 00:20:18;;;;;;;21.23;13.20;;;;;;;1.75;88.73;98305.84;5024380;28;20498;-66
2021/01/06 00:22:44;;;;;;;21.92;13.52;;;;;;;1.83;88.81;98302.47;5025030;28;20030;-66
2021/01/06 00:25:16;;;;;;;21.95;12.88;;;;;;;1.72;88.68;98298.13;5020746;28;20091;-64
2021/01/06 00:27:41;;;;;;;20.90;13.15;;;;;;;1.72;89.42;98298.13;5023267;28;20025;-64
2021/01/06 00:30:17;;;;;;;22.52;13.60;;;;;;;1.70;89.38;98299.81;5024564;28;20073;-65
2021/01/06 00:32:43;;;;;;;21.58;13.52;;;;;;;1.67;88.73;98298.94;5020523;28;20036;-64
2021/01/06 00:35:08;;;;;;;18.98;12.27;;;;;;;1.66;88.51;98300.63;5024549;28;20479;-64
2021/01/06 00:37:33;;;;;;;21.10;13.57;;;;;;;1.56;89.27;98296.28;5024823;28;20083;-64
2021/01/06 00:39:59;;;;;;;21.38;13.38;;;;;;;1.55;89.49;98299.69;5020406;28;20112;-65
2021/01/06 00:42:24;;;;;;;22.27;13.88;;;;;;;1.52;89.20;98294.53;5012572;28;20040;-71
2021/01/06 00:44:49;;;;;;;29.63;15.35;;;;;;;1.43;89.41;98297.00;5041720;28;20030;-70
2021/01/06 00:47:15;;;;;;;25.65;14.40;;;;;;;1.57;89.81;98292.88;5033508;28;20107;-71
2021/01/06 00:49:40;;;;;;;26.50;15.30;;;;;;;1.55;90.10;98289.47;5033225;28;20602;-71
2021/01/06 00:52:05;;;;;;;22.70;14.80;;;;;;;1.57;90.11;98292.88;5033226;28;20026;-71
2021/01/06 00:54:34;;;;;;;24.85;15.45;;;;;;;1.55;90.27;98289.47;5033091;28;20079;-71
2021/01/06 00:56:59;;;;;;;26.00;14.88;;;;;;;1.68;89.86;98291.28;5033285;28;20029;-71
2021/01/06 00:59:25;;;;;;;23.73;14.63;;;;;;;1.45;90.05;98288.53;5032920;28;20028;-71
2021/01/06 07:01:26;;;;;;;28.58;16.25;;;;;;;0.90;92.80;98307.44;5532835;23;20046;-64
2021/01/06 07:04:00;;;;;;;29.10;14.75;;;;;;;0.80;93.16;98310.72;4976540;28;20491;-64
2021/01/06 07:06:26;;;;;;;32.08;15.98;;;;;;;0.78;93.86;98308.16;4976837;28;20431;-64
2021/01/06 07:08:55;;;;;;;33.22;17.30;;;;;;;0.86;93.78;98311.63;4976385;28;20023;-64
2021/01/06 07:11:24;;;;;;;31.20;16.10;;;;;;;1.01;93.44;98305.88;4976284;28;20050;-65
2021/01/06 07:13:58;;;;;;;28.75;17.20;;;;;;;0.91;93.31;98311.69;4976318;28;20061;-65
2021/01/06 07:16:31;;;;;;;30.10;16.10;;;;;;;0.96;93.27;98313.47;4999896;23;20047;-74
2021/01/06 07:19:12;;;;;;;31.67;16.23;;;;;;;0.95;93.30;98316.84;4976330;28;20042;-74
2021/01/06 07:21:40;;;;;;;27.23;15.57;;;;;;;1.06;94.27;98321.22;4976201;28;20109;-75
2021/01/06 07:24:08;;;;;;;26.70;15.82;;;;;;;1.07;93.44;98320.41;4976126;28;20033;-75
2021/01/06 07:26:41;;;;;;;29.90;16.90;;;;;;;1.05;93.41;98322.94;4976161;28;20027;-75
2021/01/06 07:29:10;;;;;;;30.27;17.35;;;;;;;0.99;92.56;98322.84;4976151;28;20031;-74
2021/01/06 07:31:48;;;;;;;36.72;17.95;;;;;;;0.94;92.87;98324.50;4975964;28;20033;-74
2021/01/06 07:34:38;;;;;;;28.35;17.08;;;;;;;0.89;92.55;98336.34;4975944;28;20045;-75
2021/01/06 07:37:05;;;;;;;32.50;17.83;;;;;;;0.92;92.82;98333.81;4976288;28;20106;-74
2021/01/06 07:39:35;;;;;;;31.45;19.00;;;;;;;0.86;92.77;98336.28;4976014;28;20443;-74
2021/01/06 07:42:08;;;;;;;30.13;16.98;;;;;;;0.84;92.83;98332.88;4975918;28;20027;-74
2021/01/06 07:44:38;;;;;;;28.08;18.00;;;;;;;0.87;93.59;98332.88;4975697;28;20037;-74
2021/01/06 07:47:03;;;;;;;35.80;17.63;;;;;;;0.85;92.89;98337.97;4975853;28;20101;-74
2021/01/06 07:49:43;;;;;;;36.03;17.90;;;;;;;0.85;93.00;98339.69;4975672;28;20429;-75
2021/01/06 07:52:18;;;;;;;28.95;17.25;;;;;;;0.81;93.17;98337.91;4975637;28;20106;-74
2021/01/06 07:54:53;;;;;;;35.13;17.95;;;;;;;0.94;94.01;98334.69;4975624;28;20045;-75
2021/01/06 07:57:24;;;;;;;32.95;21.75;;;;;;;0.96;92.54;98348.31;4975637;28;20149;-74
2021/01/06 07:59:54;;;;;;;27.90;17.08;;;;;;;0.89;92.70;98346.53;4975462;28;20066;-75
2021/01/06 08:02:40;;;;;;;26.52;16.35;;;;;;;0.90;93.18;98348.25;4975468;28;20027;-75
2021/01/06 08:05:23;;;;;;;29.83;15.57;;;;;;;0.96;92.71;98354.25;4975361;28;20077;-74
2021/01/06 08:08:00;;;;;;;27.35;13.80;;;;;;;0.93;93.11;98358.50;4975509;28;20473;-74
2021/01/06 08:10:29;;;;;;;24.08;14.10;;;;;;;0.91;93.12;98355.03;4974979;28;20468;-74
2021/01/06 08:13:19;;;;;;;29.05;13.23;;;;;;;0.97;93.32;98352.59;4975314;28;20026;-74
2021/01/06 08:15:47;;;;;;;19.08;11.77;;;;;;;0.90;93.16;98353.34;4975100;28;20114;-74
2021/01/06 08:18:19;;;;;;;20.63;13.27;;;;;;;0.86;93.74;98356.69;4974003;28;20027;-75
2021/01/06 08:20:50;;;;;;;22.95;13.80;;;;;;;0.81;93.51;98353.22;4975244;28;20400;-75
2021/01/06 08:23:26;;;;;;;29.38;14.00;;;;;;;0.87;93.12;98359.28;4974043;28;20172;-75
2021/01/06 08:26:24;;;;;;;24.88;14.75;;;;;;;0.83;93.77;98361.75;4975145;28;20120;-74
2021/01/06 08:28:49;;;;;;;17.88;12.15;;;;;;;0.82;93.82;98360.88;4974867;28;20062;-74
2021/01/06 08:31:20;;;;;;;20.45;12.60;;;;;;;0.89;93.68;98356.72;4975171;28;20058;-75
2021/01/06 08:33:58;;;;;;;19.27;13.00;;;;;;;0.86;94.32;98359.22;4975305;28;20048;-74
2021/01/06 08:36:37;;;;;;;21.10;12.43;;;;;;;1.01;93.39;98356.88;4974927;28;20030;-75
2021/01/06 08:39:12;;;;;;;24.13;11.93;;;;;;;0.93;93.26;98363.59;4974856;28;20030;-74
2021/01/06 08:41:37;;;;;;;19.73;12.27;;;;;;;1.29;92.34;98353.84;4974795;28;20109;-75
2021/01/06 08:44:05;;;;;;;16.30;11.35;;;;;;;1.42;91.55;98359.09;4974839;28;20117;-75
2021/01/06 08:46:34;;;;;;;18.70;11.20;;;;;;;1.23;91.38;98353.78;4974758;28;20061;-74
2021/01/06 08:49:24;;;;;;;16.48;11.45;;;;;;;1.12;91.80;98363.00;4974841;28;20411;-75
2021/01/06 08:51:51;;;;;;;18.83;11.80;;;;;;;1.09;92.21;98362.09;4974814;28;20427;-74
2021/01/06 08:54:28;;;;;;;19.88;11.90;;;;;;;1.03;92.00;98366.28;4974604;28;20099;-74
2021/01/06 08:57:26;;;;;;;17.88;12.48;;;;;;;1.20;92.96;98363.06;4974549;28;20058;-75
2021/01/06 08:59:51;;;;;;;20.38;12.63;;;;;;;1.00;92.19;98365.38;4973513;28;20043;-74
2021/01/06 09:02:32;;;;;;;20.10;11.98;;;;;;;1.07;92.81;98368.88;4974355;28;20038;-74
2021/01/06 09:04:58;;;;;;;21.73;12.40;;;;;;;1.07;92.77;98367.19;4974228;28;20034;-74
2021/01/06 09:07:30;;;;;;;19.85;12.90;;;;;;;1.11;92.21;98366.34;4974436;28;20022;-74
2021/01/06 09:09:59;;;;;;;18.40;12.10;;;;;;;1.22;91.95;98362.28;4974429;28;20022;-74
2021/01/06 09:12:48;;;;;;;18.83;11.57;;;;;;;1.31;91.80;98370.88;4974133;28;20458;-74
2021/01/06 09:15:46;;;;;;;18.33;11.67;;;;;;;1.15;91.59;98370.66;4974108;28;20305;-75
2021/01/06 09:18:24;;;;;;;18.25;11.88;;;;;;;1.02;92.15;98384.13;4974182;28;20026;-74
2021/01/06 09:21:17;;;;;;;15.48;10.65;;;;;;;1.01;92.23;98378.13;4973344;28;20035;-74
2021/01/06 09:23:52;;;;;;;14.50;11.02;;;;;;;1.03;92.70;98381.59;4974106;28;20030;-74
2021/01/06 09:26:24;;;;;;;20.20;11.57;;;;;;;1.04;92.41;98379.88;4973873;28;20544;-74
2021/01/06 09:29:00;;;;;;;17.70;11.50;;;;;;;1.09;92.38;98380.81;4974022;28;20037;-75
2021/01/06 09:31:27;;;;;;;18.83;12.23;;;;;;;1.01;92.73;98387.47;4973682;28;20395;-75
2021/01/06 09:33:53;;;;;;;21.42;11.57;;;;;;;1.04;93.05;98397.75;4973871;28;20534;-75
2021/01/06 09:36:19;;;;;;;15.98;11.55;;;;;;;1.13;92.71;98390.22;4973792;28;20416;-75
2021/01/06 09:38:49;;;;;;;21.60;12.32;;;;;;;1.25;92.25;98386.94;4973843;28;20091;-74
2021/01/06 09:41:18;;;;;;;20.60;11.85;;;;;;;1.21;92.07;98391.19;4973546;28;20399;-74
2021/01/06 09:43:48;;;;;;;18.63;11.88;;;;;;;1.13;92.06;98397.88;4973725;28;20031;-74
2021/01/06 09:46:16;;;;;;;18.90;12.27;;;;;;;1.07;92.78;98402.91;4973788;28;20085;-75
2021/01/06 09:48:48;;;;;;;23.05;11.48;;;;;;;1.09;92.82;98401.22;4973713;28;20632;-75
2021/01/06 09:51:17;;;;;;;17.83;11.60;;;;;;;1.14;92.37;98403.81;4973555;28;20439;-74
2021/01/06 09:53:43;;;;;;;18.25;11.35;;;;;;;1.14;91.87;98394.47;4973589;28;20055;-75
2021/01/06 09:56:14;;;;;;;16.02;11.32;;;;;;;1.04;92.12;98397.75;4973182;28;20499;-75
2021/01/06 09:58:41;;;;;;;16.73;11.48;;;;;;;1.04;92.37;98392.63;4973814;28;20042;-75
2021/01/06 10:01:16;;;;;;;20.55;11.38;;;;;;;1.24;91.48;98396.31;4973277;28;20088;-75
2021/01/06 10:03:44;;;;;;;18.23;11.23;;;;;;;1.10;92.01;98392.72;4973501;28;20066;-75
2021/01/06 10:06:41;;;;;;;17.15;11.40;;;;;;;1.07;92.21;98397.78;4973251;28;20084;-75
2021/01/06 10:09:21;;;;;;;13.88;10.60;;;;;;;1.15;92.47;98397.88;4973166;28;20096;-75
2021/01/06 10:11:58;;;;;;;;;;;;;;;1.33;91.42;98394.72;4973433;28;20031;-75
2021/01/06 10:14:26;;;;;;;13.15;9.95;;;;;;;1.23;91.90;98393.75;4973135;28;19910;-75
2021/01/06 10:16:57;;;;;;;13.05;9.98;;;;;;;1.49;91.28;98383.84;4973110;28;20110;-75
2021/01/06 10:19:32;;;;;;;15.63;10.93;;;;;;;1.19;91.46;98387.72;4973312;28;20031;-75
2021/01/06 10:22:20;;;;;;;14.80;10.98;;;;;;;1.16;92.63;98392.81;4972891;28;20400;-75
2021/01/06 10:25:24;;;;;;;25.23;13.38;;;;;;;1.22;92.43;98379.28;4972545;28;20488;-75
2021/01/06 10:27:57;;;;;;;29.27;15.60;;;;;;;1.18;92.60;98386.03;4973279;28;20065;-75
2021/01/06 10:30:25;;;;;;;34.97;17.27;;;;;;;1.26;93.08;98384.44;4973339;28;20034;-75
2021/01/06 10:33:16;;;;;;;66.25;24.45;;;;;;;1.15;92.28;98391.06;4974280;28;20030;-75
2021/01/06 10:35:47;;;;;;;29.75;14.70;;;;;;;1.15;92.06;98380.88;4977026;28;20436;-75
2021/01/06 10:38:21;;;;;;;21.17;12.75;;;;;;;1.19;92.34;98387.72;4976928;28;20027;-75
2021/01/06 10:40:48;;;;;;;15.55;10.93;;;;;;;1.41;90.97;98388.03;4976859;28;20547;-75
2021/01/06 10:43:31;;;;;;;18.42;11.18;;;;;;;1.21;91.17;98392.84;4976962;28;20033;-75
2021/01/06 10:45:57;;;;;;;17.98;11.82;;;;;;;1.16;91.23;98387.72;4976952;28;20085;-75
2021/01/06 10:48:40;;;;;;;15.50;10.68;;;;;;;1.02;91.71;98387.53;4976892;28;20023;-75
2021/01/06 10:51:06;;;;;;;20.40;11.70;;;;;;;0.89;92.31;98387.34;4976885;28;20034;-75
2021/01/06 10:53:36;;;;;;;21.23;13.02;;;;;;;0.82;92.85;98390.63;4976784;28;20388;-75
2021/01/06 10:56:15;;;;;;;20.65;12.55;;;;;;;0.85;93.02;98385.56;4976607;28;20042;-75
2021/01/06 10:58:53;;;;;;;21.70;12.88;;;;;;;0.79;93.20;98385.50;4976697;28;20038;-75
2021/01/06 11:01:37;;;;;;;23.73;12.35;;;;;;;0.86;93.34;98384.72;4976691;28;20077;-75
2021/01/06 11:04:29;;;;;;;16.88;12.30;;;;;;;0.83;93.12;98380.47;4976534;28;20027;-74
2021/01/06 11:07:14;;;;;;;28.52;12.70;;;;;;;0.84;93.23;98383.88;4976562;28;20106;-75
2021/01/06 11:10:01;;;;;;;24.25;14.90;;;;;;;0.72;93.36;98380.28;4962749;28;20027;-75
2021/01/06 11:12:46;;;;;;;22.02;13.65;;;;;;;0.76;93.35;98376.09;4968255;28;20031;-75
2021/01/06 11:15:30;;;;;;;24.10;14.18;;;;;;;0.73;93.48;98382.03;4972659;28;20019;-75
2021/01/06 11:18:22;;;;;;;23.38;13.50;;;;;;;0.69;93.83;98380.25;4959813;28;20503;-75
2021/01/06 11:21:10;;;;;;;25.02;14.38;;;;;;;0.77;93.78;98378.69;4966225;28;20075;-75
2021/01/06 11:23:56;;;;;;;26.02;12.65;;;;;;;0.88;93.22;98372.88;4971552;28;20026;-75
2021/01/06 11:26:27;;;;;;;23.40;14.05;;;;;;;0.81;93.41;98373.59;4982464;28;20068;-75
2021/01/06 11:29:10;;;;;;;18.20;12.48;;;;;;;0.89;93.28;98372.88;4983829;28;20031;-75
2021/01/06 11:31:38;;;;;;;35.65;16.77;;;;;;;0.88;93.37;98370.31;4959810;28;20027;-73
2021/01/06 11:34:09;;;;;;;23.08;15.13;;;;;;;0.79;93.59;98367.66;4940850;28;20023;-72
2021/01/06 11:36:41;;;;;;;25.13;15.43;;;;;;;0.81;93.44;98363.41;4948045;28;20483;-75
2021/01/06 11:39:09;;;;;;;21.65;14.35;;;;;;;0.75;93.89;98367.59;4943222;28;20043;-73
2021/01/06 11:41:47;;;;;;;26.35;13.85;;;;;;;0.70;94.08;98369.22;4944160;28;20488;-72
2021/01/06 11:44:21;;;;;;;20.45;13.55;;;;;;;0.75;94.20;98357.41;4939326;29;20040;-72
2021/01/06 11:47:01;;;;;;;28.63;16.45;;;;;;;0.69;93.87;98359.88;4913364;29;20040;-72
2021/01/06 11:49:29;;;;;;;25.90;15.23;;;;;;;0.69;94.19;98359.88;4929194;28;20114;-72
2021/01/06 11:52:23;;;;;;;21.40;14.07;;;;;;;0.70;94.04;98356.47;4969905;28;20027;-69
2021/01/06 11:54:55;;;;;;;24.05;15.10;;;;;;;0.64;93.97;98361.50;4923803;28;20047;-69
2021/01/06 11:57:43;;;;;;;26.17;15.27;;;;;;;0.60;94.36;98357.19;4955122;29;20038;-69
2021/01/06 12:00:11;;;;;;;22.88;15.30;;;;;;;0.62;94.64;98347.84;4923177;28;20043;-68
2021/01/06 12:02:54;;;;;;;26.50;16.33;;;;;;;0.64;94.58;98353.84;4968937;28;20035;-69
2021/01/06 12:05:31;;;;;;;22.67;15.13;;;;;;;0.68;94.64;98349.66;4942599;28;20047;-69
2021/01/06 12:08:02;;;;;;;26.83;14.65;;;;;;;0.65;94.07;98347.91;4940434;29;20038;-68
2021/01/06 12:10:28;;;;;;;21.15;14.48;;;;;;;0.68;94.00;98342.84;4931095;28;20078;-69
2021/01/06 12:12:59;;;;;;;30.98;15.85;;;;;;;0.77;93.83;98350.63;4955303;29;20035;-69
2021/01/06 12:15:39;;;;;;;19.67;14.18;;;;;;;0.70;93.88;98345.41;4931298;28;20404;-69
2021/01/06 12:18:21;;;;;;;21.35;14.02;;;;;;;0.74;93.42;98352.28;4944485;29;20023;-68
2021/01/06 12:20:47;;;;;;;25.70;14.88;;;;;;;0.73;94.10;98351.44;4913853;29;20054;-69
2021/01/06 12:23:15;;;;;;;24.92;15.43;;;;;;;0.65;94.11;98355.56;4955098;29;20031;-69
2021/01/06 12:25:44;;;;;;;22.23;14.90;;;;;;;0.71;94.12;98349.69;4932781;28;20038;-69
2021/01/06 12:28:28;;;;;;;28.85;15.45;;;;;;;0.73;94.08;98353.13;4955014;28;20015;-68
2021/01/06 12:31:16;;;;;;;23.90;15.15;;;;;;;0.68;94.45;98350.50;4934527;28;20043;-69
2021/01/06 12:34:00;;;;;;;26.45;14.35;;;;;;;0.85;94.24;98345.63;4954621;28;20031;-69
2021/01/06 12:36:30;;;;;;;21.58;14.45;;;;;;;0.83;95.12;98347.31;4942637;28;20031;-68
2021/01/06 12:39:15;;;;;;;;;;;;;;;0.84;94.06;98343.06;4955869;28;20038;-69
2021/01/06 12:41:51;;;;;;;23.65;14.02;;;;;;;0.79;93.73;98345.56;4914949;28;19961;-70
2021/01/06 12:44:23;;;;;;;22.30;13.32;;;;;;;0.88;94.01;98353.31;4948709;28;20034;-76
2021/01/06 12:46:58;;;;;;;26.45;14.45;;;;;;;0.79;93.23;98344.69;4923549;28;20031;-69
2021/01/06 12:49:58;;;;;;;21.77;14.98;;;;;;;0.68;93.84;98347.97;4939692;28;20454;-69
2021/01/06 12:52:26;;;;;;;;;;;;;;;0.65;94.98;98342.81;4943874;29;20078;-69
2021/01/06 12:55:02;;;;;;;56.22;31.23;;;;;;;0.79;94.49;98349.78;4925503;28;20366;-69
2021/01/06 12:57:41;;;;;;;30.05;18.35;;;;;;;0.86;94.47;98351.56;4961931;28;20469;-69
2021/01/06 13:00:23;;;;;;;27.17;15.00;;;;;;;0.88;93.93;98349.94;4926133;28;20105;-69
2021/01/06 13:02:48;;;;;;;27.90;17.10;;;;;;;0.86;94.17;98351.56;4953871;28;20108;-69
2021/01/06 13:05:20;;;;;;;27.90;15.13;;;;;;;0.82;93.51;98355.78;4924074;28;20088;-70
2021/01/06 13:07:55;;;;;;;26.00;14.23;;;;;;;0.75;93.87;98349.75;4949753;28;20027;-69
2021/01/06 13:10:26;;;;;;;30.15;16.35;;;;;;;0.96;93.81;98355.97;4924875;28;20520;-69
2021/01/06 13:13:02;;;;;;;23.80;14.13;;;;;;;1.11;93.61;98358.72;4948662;28;20059;-69
2021/01/06 13:15:40;;;;;;;24.85;14.30;;;;;;;1.06;92.57;98357.78;4917066;28;20463;-72
2021/01/06 13:18:17;;;;;;;30.27;16.38;;;;;;;0.86;93.46;98361.78;4941902;28;20097;-73
2021/01/06 13:21:05;;;;;;;27.17;14.82;;;;;;;0.96;93.77;98353.41;4929571;28;20078;-73
2021/01/06 13:23:47;;;;;;;36.25;17.83;;;;;;;0.95;93.79;98367.00;4948790;28;20506;-73
2021/01/06 13:26:18;;;;;;;29.98;15.27;;;;;;;0.86;94.17;98361.78;4929250;28;20042;-73
2021/01/06 13:28:58;;;;;;;23.60;15.52;;;;;;;0.74;94.00;98363.34;4947109;28;20034;-73
2021/01/06 13:31:28;;;;;;;;;;;;;;;0.70;94.18;98366.66;4935515;28;20039;-73
2021/01/06 13:34:02;;;;;;;29.10;14.10;;;;;;;0.68;94.56;98368.34;4945710;28;19924;-73
2021/01/06 13:36:40;;;;;;;30.02;15.90;;;;;;;0.68;95.09;98363.25;4932371;28;20043;-72
2021/01/06 13:39:24;;;;;;;27.90;16.02;;;;;;;0.74;94.36;98368.44;4945640;28;20039;-72
2021/01/06 13:41:50;;;;;;;22.27;14.20;;;;;;;0.63;94.68;98369.97;4924426;28;20074;-73
2021/01/06 13:44:28;;;;;;;27.90;14.80;;;;;;;0.63;94.83;98369.97;4941661;29;20070;-73
2021/01/06 13:47:18;;;;;;;72.20;34.33;;;;;;;0.68;94.64;98373.44;4924809;28;20745;-73
2021/01/06 13:49:52;;;;;;;24.02;15.55;;;;;;;0.62;94.59;98377.59;4919329;28;20062;-73
2021/01/06 13:52:31;;;;;;;23.63;14.07;;;;;;;0.61;94.93;98379.28;4947779;28;20110;-72
2021/01/06 13:55:02;;;;;;;26.00;14.90;;;;;;;0.62;95.34;98388.63;4923810;28;20071;-72
2021/01/06 13:58:04;;;;;;;22.17;14.63;;;;;;;0.64;94.95;98386.13;4956416;28;20023;-72
2021/01/06 14:00:58;;;;;;;24.33;14.77;;;;;;;0.63;94.85;98385.28;4911946;28;20392;-72
2021/01/06 14:03:37;;;;;;;24.88;14.05;;;;;;;0.65;95.00;98387.84;4947625;28;20694;-72
2021/01/06 14:06:25;;;;;;;34.92;19.80;;;;;;;0.68;94.72;98388.75;4928738;28;20046;-72
2021/01/06 14:09:27;;;;;;;24.40;15.13;;;;;;;0.93;94.78;98384.84;4943585;28;20626;-72
2021/01/06 14:12:30;;;;;;;27.42;15.00;;;;;;;0.87;94.08;98389.00;4935365;28;20039;-72
2021/01/06 14:15:21;;;;;;;25.85;14.48;;;;;;;0.95;93.35;98397.63;4918980;28;20522;-72
2021/01/06 14:18:03;;;;;;;23.38;14.20;;;;;;;0.94;93.97;98395.91;4945956;28;20033;-72
2021/01/06 14:20:42;;;;;;;21.40;14.27;;;;;;;1.00;93.52;98401.09;4924697;28;20149;-72
2021/01/06 14:23:30;;;;;;;19.88;13.43;;;;;;;1.09;93.13;98401.22;4951788;28;20031;-72
2021/01/06 14:26:19;;;;;;;22.38;14.48;;;;;;;0.96;93.63;98395.06;4930215;28;20138;-72
2021/01/06 14:28:48;;;;;;;29.88;17.55;;;;;;;1.12;93.52;98405.50;4946078;28;20703;-73
2021/01/06 14:31:20;;;;;;;26.07;15.80;;;;;;;0.88;93.74;98401.78;4928397;28;20047;-72
2021/01/06 14:33:54;;;;;;;20.20;14.27;;;;;;;0.89;93.96;98403.50;4946012;28;20282;-72
2021/01/06 14:36:41;;;;;;;29.83;16.77;;;;;;;0.76;94.20;98406.69;4923640;28;20074;-72
2021/01/06 14:39:26;;;;;;;25.35;15.40;;;;;;;0.74;94.43;98401.56;4944873;29;20031;-74
2021/01/06 14:42:13;;;;;;;28.85;16.35;;;;;;;0.64;94.72;98411.63;4916034;28;20138;-69
2021/01/06 14:44:56;;;;;;;28.83;17.10;;;;;;;0.59;94.80;98403.91;4924289;28;20102;-71
2021/01/06 14:47:24;;;;;;;34.30;18.45;;;;;;;0.43;95.10;98407.88;4945125;29;20038;-71
2021/01/06 14:49:57;;;;;;;28.33;18.67;;;;;;;0.33;95.57;98411.09;4919814;28;20051;-71
2021/01/06 14:52:38;;;;;;;37.25;21.42;;;;;;;0.44;95.93;98406.22;4947232;28;20031;-71
2021/01/06 14:55:25;;;;;;;32.22;18.55;;;;;;;0.46;96.01;98407.09;4917991;28;20045;-72
2021/01/06 14:57:57;;;;;;;30.80;18.25;;;;;;;0.55;95.22;98412.31;4945753;28;20724;-71
2021/01/06 15:00:37;;;;;;;31.77;18.08;;;;;;;0.59;95.18;98410.69;4923408;28;20043;-71
2021/01/06 15:03:13;;;;;;;30.80;17.98;;;;;;;0.72;94.02;98415.97;4950300;28;20027;-72
2021/01/06 15:05:51;;;;;;;23.23;15.85;;;;;;;0.89;93.54;98417.94;4924825;28;20046;-72
2021/01/06 15:08:54;;;;;;;28.73;18.02;;;;;;;0.83;93.91;98407.66;4950272;28;20058;-72
2021/01/06 15:11:22;;;;;;;28.02;16.98;;;;;;;0.75;93.89;98416.03;4919050;28;20097;-73
2021/01/06 15:14:07;;;;;;;25.23;16.17;;;;;;;1.00;94.02;98416.38;4943217;29;20035;-72
2021/01/06 15:16:35;;;;;;;29.30;17.25;;;;;;;0.75;94.30;98415.19;4933757;28;20043;-70
2021/01/06 15:19:07;;;;;;;26.58;16.02;;;;;;;0.60;94.54;98415.81;4944742;28;20046;-70
2021/01/06 15:21:43;;;;;;;28.50;16.27;;;;;;;0.52;94.76;98422.47;4927751;28;20106;-70
2021/01/06 15:24:22;;;;;;;30.75;16.58;;;;;;;0.41;95.37;98424.00;4942185;29;20023;-69
2021/01/06 15:26:53;;;;;;;30.05;16.30;;;;;;;0.36;95.89;98423.06;4927707;28;20043;-70
2021/01/06 15:29:39;;;;;;;30.15;17.10;;;;;;;0.33;96.07;98423.84;4946592;29;20995;-67
2021/01/06 15:32:23;;;;;;;26.70;17.63;;;;;;;0.31;96.22;98419.56;4923766;29;20039;-66
2021/01/06 15:34:50;;;;;;;33.05;19.23;;;;;;;0.36;96.34;98420.50;4920973;28;20516;-69
2021/01/06 15:37:25;;;;;;;28.65;17.92;;;;;;;0.27;96.02;98425.44;4948064;29;20408;-69
2021/01/06 15:39:51;;;;;;;29.73;17.73;;;;;;;0.31;96.42;98417.03;4923102;28;20077;-69
2021/01/06 15:42:23;;;;;;;26.88;16.92;;;;;;;0.25;96.37;98418.66;4950804;28;20544;-69
2021/01/06 15:44:57;;;;;;;32.50;17.95;;;;;;;0.31;96.73;98417.03;4922672;28;20069;-69
2021/01/06 15:47:35;;;;;;;31.67;18.63;;;;;;;0.33;96.89;98426.41;4958916;28;20106;-68
2021/01/06 15:50:22;;;;;;;36.20;18.38;;;;;;;0.39;96.88;98425.66;4925676;28;20053;-67
2021/01/06 15:52:47;;;;;;;29.67;18.35;;;;;;;0.34;96.53;98427.25;4957164;28;20027;-67
2021/01/06 15:55:23;;;;;;;28.45;17.60;;;;;;;0.22;96.58;98423.69;4925040;28;20043;-67
2021/01/06 15:57:52;;;;;;;30.42;17.50;;;;;;;0.23;96.74;98425.38;4956457;28;20062;-67
2021/01/06 16:00:28;;;;;;;29.00;17.42;;;;;;;0.40;97.49;98429.94;4917440;28;20051;-67
2021/01/06 16:02:57;;;;;;;29.40;17.60;;;;;;;0.35;97.71;98421.34;4947470;28;20043;-67
2021/01/06 16:05:38;;;;;;;35.90;19.87;;;;;;;0.40;98.34;98433.31;4923108;28;20046;-67
2021/01/06 16:08:15;;;;;;;29.65;18.00;;;;;;;0.37;97.51;98430.72;4953762;28;20028;-69
2021/01/06 16:10:41;;;;;;;33.97;17.48;;;;;;;0.49;97.07;98432.63;4921878;28;20536;-71
2021/01/06 16:13:16;;;;;;;30.90;17.58;;;;;;;0.42;97.29;98430.78;4946740;28;20034;-73
2021/01/06 16:15:43;;;;;;;37.30;18.92;;;;;;;0.37;97.33;98437.50;4923287;28;20050;-73
2021/01/06 16:18:42;;;;;;;45.80;20.50;;;;;;;0.54;97.67;98436.09;4946526;28;20122;-73
2021/01/06 16:21:14;;;;;;;32.13;18.58;;;;;;;0.45;96.93;98436.81;4925536;28;20047;-72
2021/01/06 16:23:40;;;;;;;28.48;17.10;;;;;;;0.51;97.82;98441.16;4943390;28;20027;-72
2021/01/06 16:26:17;;;;;;;28.13;16.85;;;;;;;0.64;96.69;98437.97;4931233;28;20049;-72
2021/01/06 16:28:44;;;;;;;26.42;17.65;;;;;;;0.42;96.61;98446.09;4947334;28;20038;-72
2021/01/06 16:31:26;;;;;;;27.55;17.08;;;;;;;0.63;96.78;98446.47;4925235;28;20753;-72
2021/01/06 16:33:52;;;;;;;30.10;16.25;;;;;;;0.85;94.84;98441.66;4942404;28;20035;-72
2021/01/06 16:36:20;;;;;;;27.30;17.40;;;;;;;0.83;95.45;98448.47;4924896;28;20435;-72
2021/01/06 16:38:46;;;;;;;26.38;15.68;;;;;;;0.70;96.04;98443.16;4943543;28;20031;-72
2021/01/06 16:41:26;;;;;;;45.88;26.50;;;;;;;0.67;95.90;98447.34;4931232;28;20486;-72
2021/01/06 16:43:57;;;;;;;30.23;16.13;;;;;;;0.54;96.45;98459.03;4948126;28;20024;-72
2021/01/06 16:46:27;;;;;;;38.55;17.40;;;;;;;0.54;96.26;98451.41;4932589;28;20282;-72
2021/01/06 16:49:15;;;;;;;34.70;18.63;;;;;;;0.42;96.23;98451.19;4945105;28;20032;-74
2021/01/06 16:51:51;;;;;;;33.58;19.08;;;;;;;0.48;97.03;98451.28;4925788;28;20042;-72
2021/01/06 16:54:29;;;;;;;33.00;19.92;;;;;;;0.45;96.80;98457.19;4945363;29;20039;-72
2021/01/06 16:57:00;;;;;;;37.58;19.63;;;;;;;0.44;97.30;98454.63;4936801;28;20496;-72
2021/01/06 16:59:28;;;;;;;28.83;17.92;;;;;;;0.47;96.99;98459.75;4941828;28;20055;-72
2021/01/06 17:02:17;;;;;;;25.10;17.02;;;;;;;0.51;96.30;98461.53;4925034;28;20051;-72
2021/01/06 17:04:43;;;;;;;29.63;15.77;;;;;;;0.72;97.00;98461.88;4946155;29;20035;-72
2021/01/06 17:07:36;;;;;;;22.45;15.82;;;;;;;0.66;96.11;98464.31;4925758;28;20049;-72
2021/01/06 17:10:14;;;;;;;29.08;15.40;;;;;;;0.56;96.01;98465.00;4916996;28;20122;-72
2021/01/06 17:12:39;;;;;;;24.55;16.08;;;;;;;0.49;96.27;98468.31;4947677;28;20488;-72
2021/01/06 17:15:05;;;;;;;29.92;18.23;;;;;;;0.40;96.74;98473.25;4920378;28;20042;-72
2021/01/06 17:17:33;;;;;;;26.50;15.32;;;;;;;0.45;96.71;98474.19;4952231;28;20058;-72
2021/01/06 17:20:13;;;;;;;23.80;15.52;;;;;;;0.58;96.77;98467.56;4921451;28;20110;-72
2021/01/06 17:22:39;;;;;;;53.83;27.10;;;;;;;0.60;97.02;98471.88;4957386;28;20086;-72
2021/01/06 17:25:06;;;;;;;38.95;17.80;;;;;;;0.55;97.41;98473.50;4921929;28;20126;-73
2021/01/06 17:27:33;;;;;;;27.50;17.45;;;;;;;0.52;97.14;98476.00;4958250;28;20045;-72
2021/01/06 17:30:23;;;;;;;32.38;16.30;;;;;;;0.55;97.28;98482.84;4921282;28;20027;-73
2021/01/06 17:33:00;;;;;;;30.13;15.07;;;;;;;0.40;96.92;98483.44;4947053;28;20428;-72
2021/01/06 17:35:27;;;;;;;25.55;15.93;;;;;;;0.47;97.34;98485.25;4920616;28;20113;-73
2021/01/06 17:38:04;;;;;;;26.77;16.25;;;;;;;0.63;97.07;98484.69;4935246;28;20397;-72
2021/01/06 17:40:30;;;;;;;30.35;16.63;;;;;;;0.67;97.46;98483.88;4922379;28;20077;-72
2021/01/06 17:42:59;;;;;;;31.55;17.73;;;;;;;0.68;96.91;98484.78;4945410;28;20130;-73
2021/01/06 17:45:33;;;;;;;29.60;16.73;;;;;;;0.61;95.92;98488.03;4920300;28;20085;-72
2021/01/06 17:48:01;;;;;;;36.92;19.25;;;;;;;0.74;96.72;98488.25;4945916;28;20123;-73
2021/01/06 17:50:29;;;;;;;34.30;17.63;;;;;;;0.66;96.73;98497.47;4925235;28;20046;-73
2021/01/06 17:52:55;;;;;;;30.42;18.25;;;;;;;0.44;97.19;98492.84;4952076;28;20041;-73
2021/01/06 17:55:21;;;;;;;33.95;19.15;;;;;;;0.61;97.15;98494.00;4923206;28;20110;-73
2021/01/06 17:57:47;;;;;;;32.30;16.88;;;;;;;0.60;97.30;98493.97;4955440;28;20023;-73
2021/01/06 18:00:14;;;;;;;48.92;19.83;;;;;;;0.45;96.64;98502.22;4923290;28;20137;-73
2021/01/06 18:02:44;;;;;;;31.45;16.95;;;;;;;0.35;97.04;98505.44;4955381;28;20038;-73